Terminal Aerodrome Forecast
Issued by NWS

Home | Current Version | Previous Version | Text Only | Print | Product List | Glossary On
Versions: 1 2 3 4 5 6 7 8 9 10 11 12 13 14 15
000
FTUS42 KGSP 252335
TAFGMU
TAF
KGMU 252335Z 2600/2624 17006KT P6SM BKN060
     FM260600 18006KT P6SM VCTS OVC030CB
     FM261100 17005KT P6SM OVC009
     FM261500 18006KT P6SM VCSH BKN015 OVC030
     FM261700 19006KT P6SM VCTS BKN035CB PROB30 2619/2624 3SM TSRA
      OVC035CB=

USA.gov is the U.S. government's official web portal to all federal, state and local government web resources and services.